Time;durP1;ratioP1;P1;durP2;ratioP2;P2;SDS_P1;SDS_P2;PMS_P1;PMS_P2;Temp;Humidity;BMP_temperature;BMP_pressure;BME280_temperature;BME280_humidity;BME280_pressure;Samples;Min_cycle;Max_cycle;Signal;HPM_P1;HPM_P2
2023/06/27 00:01:00;;;;;;;9.30;6.20;;;;;;;17.67;71.46;99729.23;104642;277;96677;-57
2023/06/27 00:03:55;;;;;;;12.40;7.10;;;;;;;17.78;71.28;99780.23;104148;277;95822;-55
2023/06/27 00:06:29;;;;;;;9.10;7.00;;;;;;;17.84;71.15;99774.23;104122;277;121014;-55
2023/06/27 00:09:05;;;;;;;10.00;7.10;;;;;;;17.90;70.53;99768.75;104620;277;104921;-55
2023/06/27 00:11:40;;;;;;;9.40;7.20;;;;;;;17.98;69.84;99731.90;104590;277;114772;-55
2023/06/27 00:14:14;;;;;;;8.40;6.60;;;;;;;18.10;69.11;99734.70;104603;277;93576;-57
2023/06/27 00:16:46;;;;;;;;;;;;;;;18.20;68.62;99748.98;104151;277;98243;-57
2023/06/27 00:19:20;;;;;;;7.40;6.60;;;;;;;18.25;68.39;99755.38;104614;278;121417;-55
2023/06/27 00:21:55;;;;;;;8.10;6.60;;;;;;;18.29;68.17;99761.02;104150;277;104821;-55
2023/06/27 00:24:29;;;;;;;7.30;5.60;;;;;;;18.33;67.82;99746.61;104618;277;114412;-58
2023/06/27 00:27:03;;;;;;;7.40;6.30;;;;;;;18.36;67.38;99755.58;104130;277;92771;-57
2023/06/27 00:29:35;;;;;;;;;;;;;;;18.38;67.23;99756.30;104188;274;97372;-57
2023/06/27 00:32:11;;;;;;;9.00;5.90;;;;;;;18.39;66.86;99753.13;104141;277;121136;-57
2023/06/27 00:34:45;;;;;;;8.10;5.90;;;;;;;18.40;66.80;99751.63;104159;277;105261;-57
2023/06/27 00:37:19;;;;;;;7.30;5.70;;;;;;;18.40;66.58;99749.94;103953;279;115270;-57
2023/06/27 00:39:53;;;;;;;6.50;5.70;;;;;;;18.42;66.45;99749.63;104126;278;97045;-57
2023/06/27 00:42:27;;;;;;;6.50;5.70;;;;;;;18.43;66.33;99743.29;104090;277;96846;-57
2023/06/27 00:45:02;;;;;;;10.80;6.30;;;;;;;18.45;66.31;99731.56;104090;277;119292;-57
2023/06/27 00:47:36;;;;;;;6.80;5.60;;;;;;;18.47;66.37;99740.89;104124;277;104440;-57
2023/06/27 00:50:10;;;;;;;;;;;;;;;18.49;66.25;99740.27;104107;277;114837;-55
2023/06/27 00:52:45;;;;;;;7.20;5.70;;;;;;;18.49;66.18;99740.00;104126;278;94319;-55
2023/06/27 00:55:21;;;;;;;11.70;7.40;;;;;;;18.51;66.33;99741.34;104147;277;97369;-58
2023/06/27 00:57:55;;;;;;;6.60;5.40;;;;;;;18.52;66.17;99738.87;104169;277;119919;-57
2023/06/27 01:00:29;;;;;;;;;;;;;;;18.51;66.13;99734.94;104143;277;105597;-57
2023/06/27 01:03:04;;;;;;;6.00;5.10;;;;;;;18.52;66.38;99739.48;104122;277;114313;-57
2023/06/27 01:05:38;;;;;;;8.80;5.50;;;;;;;18.51;66.31;99742.15;104091;277;96341;-55
2023/06/27 01:08:24;;;;;;;5.80;5.20;;;;;;;18.50;66.58;99742.35;104137;277;97650;-55
2023/06/27 01:11:05;;;;;;;6.10;5.00;;;;;;;18.51;66.67;99738.16;104133;277;119701;-57
2023/06/27 01:13:47;;;;;;;8.00;5.40;;;;;;;18.50;66.88;99742.80;104620;277;104249;-57
2023/06/27 01:16:23;;;;;;;5.20;4.60;;;;;;;18.55;66.86;99744.66;104099;277;113665;-55
2023/06/27 01:18:58;;;;;;;6.60;4.70;;;;;;;18.57;66.97;99744.90;104144;277;94292;-57
2023/06/27 01:21:34;;;;;;;5.50;4.70;;;;;;;18.58;67.05;99748.08;104105;278;98489;-57
2023/06/27 01:24:10;;;;;;;5.70;5.00;;;;;;;18.58;67.13;99747.37;104625;277;121568;-55
2023/06/27 01:26:44;;;;;;;5.70;4.70;;;;;;;18.56;67.16;99747.95;104090;277;105096;-55
2023/06/27 01:29:18;;;;;;;7.10;5.10;;;;;;;18.55;67.46;99743.95;104108;277;113842;-57
2023/06/27 01:31:57;;;;;;;7.20;4.50;;;;;;;18.57;67.32;99742.43;104613;277;97085;-57
2023/06/27 01:34:37;;;;;;;6.80;4.80;;;;;;;18.57;67.67;99749.71;104602;277;96758;-57
2023/06/27 01:37:18;;;;;;;5.50;4.60;;;;;;;18.57;67.68;99738.55;104621;277;121131;-58
2023/06/27 01:39:58;;;;;;;5.60;4.90;;;;;;;18.56;67.83;99733.36;104160;277;105391;-55
2023/06/27 01:42:36;;;;;;;5.80;4.40;;;;;;;18.58;68.05;99739.11;104100;277;114540;-55
2023/06/27 01:45:14;;;;;;;5.90;4.90;;;;;;;18.58;68.07;99743.48;104148;278;94629;-55
2023/06/27 01:47:48;;;;;;;6.20;4.80;;;;;;;18.56;68.38;99741.93;104136;277;98179;-55
2023/06/27 01:50:22;;;;;;;5.20;4.70;;;;;;;18.56;68.52;99732.35;104124;277;120081;-55
2023/06/27 01:52:57;;;;;;;6.10;4.60;;;;;;;18.54;68.58;99728.67;104136;277;105719;-54
2023/06/27 01:55:32;;;;;;;6.40;4.80;;;;;;;18.54;68.76;99730.31;104595;277;115213;-55
2023/06/27 01:58:07;;;;;;;5.30;4.10;;;;;;;18.56;68.84;99729.02;104122;277;96210;-55
2023/06/27 02:00:41;;;;;;;5.90;4.50;;;;;;;18.61;68.92;99732.36;104143;277;97834;-57
2023/06/27 02:03:13;;;;;;;;;;;;;;;18.61;69.00;99737.83;104591;277;119722;-57
2023/06/27 02:05:47;;;;;;;5.40;4.80;;;;;;;18.57;69.17;99738.52;104162;277;104526;-55
2023/06/27 02:08:21;;;;;;;15.10;6.10;;;;;;;18.58;69.36;99740.64;104142;277;114384;-55
2023/06/27 02:10:54;;;;;;;;;;;;;;;18.56;69.60;99732.14;104101;277;94912;-57
2023/06/27 02:13:28;;;;;;;6.10;5.10;;;;;;;18.55;69.75;99735.95;104147;277;97190;-57
2023/06/27 02:16:02;;;;;;;7.70;5.30;;;;;;;18.58;69.96;99727.35;104048;279;119261;-57
2023/06/27 02:18:36;;;;;;;7.20;5.20;;;;;;;18.60;70.28;99728.58;104451;279;105023;-57
2023/06/27 02:21:10;;;;;;;7.20;5.30;;;;;;;18.62;70.57;99737.84;104056;279;113871;-55
2023/06/27 02:23:45;;;;;;;6.70;5.40;;;;;;;18.62;71.03;99741.61;104447;279;96033;-55
2023/06/27 02:26:19;;;;;;;6.50;5.40;;;;;;;18.61;71.41;99748.06;104047;279;98429;-57
2023/06/27 02:28:53;;;;;;;6.40;5.60;;;;;;;18.59;71.72;99752.59;104042;279;120936;-57
2023/06/27 02:31:27;;;;;;;7.30;5.40;;;;;;;18.56;72.15;99748.68;104079;279;105853;-57
2023/06/27 02:34:02;;;;;;;6.50;5.80;;;;;;;18.51;72.57;99733.46;104042;279;114268;-57
2023/06/27 02:36:36;;;;;;;6.50;5.80;;;;;;;18.45;72.91;99725.10;104051;279;95594;-57
2023/06/27 02:39:10;;;;;;;7.30;5.60;;;;;;;18.46;73.11;99718.59;104079;279;96896;-57
2023/06/27 02:41:44;;;;;;;8.30;5.60;;;;;;;18.45;73.49;99709.14;104049;279;119619;-57
2023/06/27 02:44:18;;;;;;;6.80;5.80;;;;;;;18.46;73.66;99701.80;104032;279;104862;-57
2023/06/27 02:46:50;;;;;;;;;;;;;;;18.47;73.76;99697.72;104440;279;114529;-57
2023/06/27 02:49:25;;;;;;;6.40;5.70;;;;;;;18.41;74.15;99691.80;104025;279;95733;-57
2023/06/27 02:51:59;;;;;;;7.90;6.40;;;;;;;18.38;74.50;99689.23;104037;279;97128;-57
2023/06/27 02:54:31;;;;;;;;;;;;;;;18.37;74.64;99684.69;104031;279;121047;-55
2023/06/27 02:57:06;;;;;;;7.90;6.20;;;;;;;18.33;74.92;99685.57;104047;279;106299;-56
2023/06/27 02:59:40;;;;;;;9.30;5.70;;;;;;;18.33;75.14;99686.45;104031;279;114359;-58
2023/06/27 03:02:14;;;;;;;8.60;6.20;;;;;;;18.33;75.19;99686.02;104006;267;96608;-58
2023/06/27 03:04:48;;;;;;;7.60;6.70;;;;;;;18.32;75.60;99678.95;104040;279;95714;-56
2023/06/27 03:07:22;;;;;;;9.30;6.40;;;;;;;18.28;75.82;99667.45;104019;279;119302;-56
2023/06/27 03:09:55;;;;;;;;;;;;;;;18.22;76.14;99662.55;104059;279;105898;-56
2023/06/27 03:12:29;;;;;;;8.10;6.10;;;;;;;18.13;76.45;99662.83;104018;279;114758;-56
2023/06/27 03:15:04;;;;;;;8.40;6.40;;;;;;;18.05;76.82;99667.28;104077;277;96917;-56
2023/06/27 03:17:38;;;;;;;9.40;6.80;;;;;;;17.98;77.10;99667.85;104131;277;98011;-56
2023/06/27 03:20:14;;;;;;;7.20;6.00;;;;;;;18.01;77.38;99662.31;104123;277;119440;-56
2023/06/27 03:22:48;;;;;;;8.60;7.70;;;;;;;18.02;77.78;99675.56;104107;277;104929;-56
2023/06/27 03:25:22;;;;;;;8.20;6.20;;;;;;;18.01;77.94;99686.41;104084;277;112063;-55
2023/06/27 03:27:56;;;;;;;7.50;6.20;;;;;;;18.04;78.13;99689.68;104014;277;96843;-55
2023/06/27 03:30:30;;;;;;;10.40;6.70;;;;;;;18.05;78.45;99680.99;104073;279;97940;-57
2023/06/27 03:33:05;;;;;;;9.10;6.90;;;;;;;18.05;78.63;99673.29;104066;279;119566;-57
2023/06/27 03:35:39;;;;;;;8.10;7.30;;;;;;;18.08;78.73;99682.95;104536;278;103578;-57
2023/06/27 03:38:13;;;;;;;8.20;6.80;;;;;;;18.11;78.70;99688.71;104043;278;114560;-57
2023/06/27 03:40:47;;;;;;;9.20;7.20;;;;;;;18.10;78.93;99685.16;104096;279;95669;-54
2023/06/27 03:43:21;;;;;;;7.90;6.70;;;;;;;18.08;79.15;99684.58;104074;278;97647;-54
2023/06/27 03:45:55;;;;;;;9.40;6.70;;;;;;;18.09;79.34;99685.27;104074;279;120717;-54
2023/06/27 03:48:29;;;;;;;8.20;6.80;;;;;;;18.13;79.29;99692.17;104110;279;105422;-54
2023/06/27 03:51:03;;;;;;;8.00;6.50;;;;;;;18.15;79.45;99698.17;104081;283;113831;-57
2023/06/27 03:53:37;;;;;;;7.80;6.50;;;;;;;18.23;79.61;99692.47;104082;279;96719;-57
2023/06/27 03:56:10;;;;;;;;;;;;;;;18.32;79.82;99702.52;104122;278;98019;-57
2023/06/27 03:58:44;;;;;;;8.10;6.70;;;;;;;18.35;79.98;99704.95;104041;279;120460;-57
2023/06/27 04:01:16;;;;;;;;;;;;;;;18.34;79.91;99705.05;104103;278;104759;-57
2023/06/27 04:03:50;;;;;;;7.70;6.60;;;;;;;18.36;80.14;99706.72;104109;278;114018;-55
2023/06/27 04:06:24;;;;;;;8.00;6.60;;;;;;;18.37;80.21;99700.49;103951;279;96308;-55
2023/06/27 04:08:59;;;;;;;7.80;7.00;;;;;;;18.37;80.22;99706.41;104119;279;97545;-55
2023/06/27 04:11:33;;;;;;;9.60;7.10;;;;;;;18.39;80.27;99713.42;104076;278;119917;-55
2023/06/27 04:14:06;;;;;;;8.60;7.40;;;;;;;18.40;80.23;99723.35;104528;278;105756;-57
2023/06/27 04:16:41;;;;;;;8.20;6.80;;;;;;;18.35;80.33;99729.36;103877;280;117437;-57
2023/06/27 04:19:15;;;;;;;7.90;6.60;;;;;;;18.37;80.26;99725.83;103901;280;96080;-54
2023/06/27 04:21:48;;;;;;;9.40;7.00;;;;;;;18.41;80.23;99720.73;104532;279;97642;-54
2023/06/27 04:24:22;;;;;;;8.50;7.50;;;;;;;18.41;80.54;99720.73;104107;278;120126;-56
2023/06/27 04:26:56;;;;;;;8.50;6.80;;;;;;;18.43;80.57;99723.70;104077;277;105197;-57
2023/06/27 04:29:30;;;;;;;8.90;6.70;;;;;;;18.45;80.63;99721.92;104137;277;114375;-54
2023/06/27 04:32:04;;;;;;;8.10;6.70;;;;;;;18.52;80.50;99719.46;104137;277;95762;-54
2023/06/27 04:34:37;;;;;;;;;;;;;;;18.55;80.66;99716.92;104127;277;97740;-57
2023/06/27 04:37:10;;;;;;;8.30;7.40;;;;;;;18.57;80.83;99716.67;104614;277;119577;-57
2023/06/27 04:39:44;;;;;;;9.30;8.40;;;;;;;18.56;80.78;99714.80;104117;277;105656;-57
2023/06/27 04:42:18;;;;;;;8.10;7.00;;;;;;;18.51;80.92;99708.27;104137;277;112784;-57
2023/06/27 04:44:52;;;;;;;10.20;7.80;;;;;;;18.46;81.22;99702.35;104631;277;95814;-57
2023/06/27 04:47:26;;;;;;;10.40;7.80;;;;;;;18.50;81.26;99695.96;104139;278;97427;-57
2023/06/27 04:50:00;;;;;;;9.40;7.20;;;;;;;18.59;81.33;99692.94;104139;277;120403;-55
2023/06/27 04:52:34;;;;;;;9.80;7.30;;;;;;;18.64;81.36;99688.08;104144;277;105592;-55
2023/06/27 04:55:10;;;;;;;10.90;8.10;;;;;;;18.61;81.37;99687.60;104074;277;114282;-57
2023/06/27 04:57:45;;;;;;;9.50;7.50;;;;;;;18.62;81.70;99682.46;104110;277;97368;-57
2023/06/27 05:00:20;;;;;;;9.50;6.90;;;;;;;18.63;81.65;99677.98;104108;277;98052;-55
2023/06/27 05:02:56;;;;;;;8.30;7.10;;;;;;;18.68;81.53;99680.54;104113;277;119729;-55
2023/06/27 05:05:32;;;;;;;10.20;7.30;;;;;;;18.68;81.76;99674.75;104098;277;105984;-55
2023/06/27 05:08:07;;;;;;;9.70;7.20;;;;;;;18.71;81.65;99675.72;104104;277;113522;-55
2023/06/27 05:10:41;;;;;;;11.20;7.90;;;;;;;18.74;81.88;99674.36;104130;277;96858;-57
2023/06/27 05:13:16;;;;;;;9.20;6.50;;;;;;;18.74;81.85;99674.59;104595;277;98353;-57
2023/06/27 05:15:50;;;;;;;8.80;7.10;;;;;;;18.72;82.02;99670.08;104603;277;119151;-55
2023/06/27 05:18:26;;;;;;;;;;;;;;;18.74;82.07;99667.80;103983;277;105800;-55
2023/06/27 05:21:00;;;;;;;9.70;6.80;;;;;;;18.76;82.07;99663.49;104085;277;113446;-55
2023/06/27 05:23:34;;;;;;;9.10;6.60;;;;;;;18.77;82.42;99661.15;104107;277;96260;-57
2023/06/27 05:26:08;;;;;;;10.80;6.80;;;;;;;18.80;82.34;99659.59;104659;277;97714;-56
2023/06/27 05:28:44;;;;;;;8.70;6.40;;;;;;;18.79;82.60;99660.46;104115;277;120866;-56
2023/06/27 05:31:18;;;;;;;8.30;6.20;;;;;;;18.78;82.74;99666.09;103955;278;105791;-58
2023/06/27 05:33:50;;;;;;;;;;;;;;;18.78;82.68;99665.80;104128;277;113126;-59
2023/06/27 05:36:24;;;;;;;7.60;6.00;;;;;;;18.76;82.91;99671.55;104084;277;97838;-58
2023/06/27 05:38:58;;;;;;;7.00;5.70;;;;;;;18.74;82.87;99673.17;104592;277;98106;-58
2023/06/27 05:41:32;;;;;;;6.10;5.50;;;;;;;18.73;83.14;99677.54;104092;277;119791;-59
2023/06/27 05:44:07;;;;;;;5.80;4.40;;;;;;;18.64;83.26;99684.73;104079;278;106178;-56
2023/06/27 05:46:44;;;;;;;7.80;4.40;;;;;;;18.61;83.37;99690.66;104107;277;112935;-56
2023/06/27 05:49:18;;;;;;;5.70;3.90;;;;;;;18.59;83.50;99693.93;104108;278;96502;-58
2023/06/27 05:51:52;;;;;;;6.70;3.50;;;;;;;18.57;83.61;99693.04;104097;277;97294;-58
2023/06/27 05:54:26;;;;;;;5.90;4.10;;;;;;;18.39;83.33;99707.35;104597;278;120388;-58
2023/06/27 05:57:00;;;;;;;4.60;2.70;;;;;;;18.32;83.36;99718.16;104097;297;105216;-58
2023/06/27 05:59:34;;;;;;;4.50;2.70;;;;;;;18.28;83.17;99723.27;104119;277;114925;-58
2023/06/27 06:02:08;;;;;;;4.50;2.50;;;;;;;18.28;83.03;99728.20;104580;277;97115;-58
2023/06/27 06:04:41;;;;;;;;;;;;;;;18.19;82.93;99734.70;104161;277;96376;-58
2023/06/27 06:07:15;;;;;;;3.80;2.30;;;;;;;18.21;82.75;99729.31;104111;277;120601;-57
2023/06/27 06:09:48;;;;;;;;;;;;;;;18.18;82.66;99734.09;104127;277;105207;-57
2023/06/27 06:12:22;;;;;;;6.40;2.80;;;;;;;18.21;82.92;99737.45;103963;277;113765;-57
2023/06/27 06:14:56;;;;;;;5.20;2.50;;;;;;;18.15;83.05;99739.14;104634;277;95369;-55
2023/06/27 06:17:30;;;;;;;3.00;2.30;;;;;;;18.12;82.91;99739.37;104135;277;96777;-56
2023/06/27 06:20:09;;;;;;;4.20;2.50;;;;;;;18.09;82.62;99742.67;104106;277;120554;-60
2023/06/27 06:22:43;;;;;;;5.10;3.20;;;;;;;17.99;82.72;99748.27;104138;277;104144;-57
2023/06/27 06:25:17;;;;;;;3.20;2.30;;;;;;;17.98;82.62;99754.70;104119;277;115282;-56
2023/06/27 06:27:51;;;;;;;3.80;3.10;;;;;;;18.02;82.87;99748.20;104088;277;95395;-56
2023/06/27 06:30:26;;;;;;;3.50;2.90;;;;;;;18.03;82.91;99749.36;103863;277;384906;-57
2023/06/27 06:33:00;;;;;;;4.50;2.70;;;;;;;17.93;83.28;99754.91;104502;278;120292;-57
2023/06/27 06:35:33;;;;;;;;;;;;;;;18.04;83.45;99754.14;104142;277;103971;-57
2023/06/27 06:38:06;;;;;;;3.60;2.80;;;;;;;18.17;83.77;99760.37;104137;277;114640;-57
2023/06/27 06:40:40;;;;;;;4.90;2.80;;;;;;;18.40;83.72;99764.20;104129;277;95742;-58
2023/06/27 06:43:13;;;;;;;;;;;;;;;18.53;83.69;99764.71;104140;277;98454;-57
2023/06/27 06:45:50;;;;;;;4.00;3.00;;;;;;;18.64;83.41;99761.27;104161;277;119377;-58
2023/06/27 06:48:26;;;;;;;5.20;3.10;;;;;;;18.76;83.04;99767.59;104139;277;104091;-57
2023/06/27 06:51:02;;;;;;;8.80;3.80;;;;;;;18.86;82.86;99762.55;104631;277;112901;-55
2023/06/27 06:53:36;;;;;;;6.40;3.10;;;;;;;18.96;82.86;99769.82;104085;277;96926;-55
2023/06/27 06:56:11;;;;;;;5.10;3.30;;;;;;;19.07;82.92;99767.68;104135;277;95223;-57
2023/06/27 06:58:48;;;;;;;5.50;2.90;;;;;;;19.23;82.99;99766.12;104111;277;120340;-57
2023/06/27 07:01:22;;;;;;;5.20;2.80;;;;;;;19.30;82.82;99772.32;104138;277;104249;-55
2023/06/27 07:03:55;;;;;;;;;;;;;;;19.63;83.01;99774.29;104621;277;113615;-57
2023/06/27 07:06:30;;;;;;;6.30;2.80;;;;;;;20.00;82.66;99776.01;104126;278;95936;-57
2023/06/27 07:09:04;;;;;;;7.90;3.20;;;;;;;20.38;82.40;99772.54;104162;277;96536;-57
2023/06/27 07:11:36;;;;;;;;;;;;;;;21.11;81.93;99773.08;104121;277;120638;-57
2023/06/27 07:14:12;;;;;;;5.90;2.80;;;;;;;21.43;80.94;99772.39;104200;277;104982;-57
2023/06/27 07:16:46;;;;;;;5.90;2.80;;;;;;;21.91;79.86;99770.52;104168;278;112304;-55
2023/06/27 07:19:20;;;;;;;7.20;3.00;;;;;;;22.21;78.76;99773.80;104167;277;93447;-57
2023/06/27 07:21:54;;;;;;;3.60;2.50;;;;;;;22.37;78.08;99779.64;104163;277;97674;-55
2023/06/27 07:24:28;;;;;;;5.60;2.70;;;;;;;22.83;77.43;99773.32;104148;277;120776;-58
2023/06/27 07:27:03;;;;;;;4.90;2.60;;;;;;;23.58;76.48;99767.08;104560;277;104159;-58
2023/06/27 07:29:37;;;;;;;5.00;2.80;;;;;;;24.00;74.65;99772.79;104157;278;115173;-57
2023/06/27 07:32:12;;;;;;;5.60;2.80;;;;;;;24.12;74.18;99777.14;104047;277;94127;-55
2023/06/27 07:34:46;;;;;;;6.30;2.50;;;;;;;25.62;74.34;99772.52;104180;277;97953;-56
2023/06/27 07:37:21;;;;;;;5.50;2.50;;;;;;;26.36;70.94;99773.79;104167;277;120163;-56
2023/06/27 07:39:55;;;;;;;5.70;2.20;;;;;;;26.28;69.33;99774.06;104179;277;104149;-56
2023/06/27 07:42:29;;;;;;;5.90;2.80;;;;;;;26.45;67.48;99768.77;104161;277;113172;-56
2023/06/27 07:45:03;;;;;;;5.40;2.30;;;;;;;27.09;66.60;99768.64;104168;277;93327;-58
2023/06/27 07:47:38;;;;;;;4.90;2.20;;;;;;;27.26;64.84;99770.55;104172;277;97007;-58
2023/06/27 07:50:13;;;;;;;7.10;3.40;;;;;;;27.65;64.77;99761.92;104655;277;120463;-58
2023/06/27 07:52:47;;;;;;;3.50;2.30;;;;;;;28.51;62.48;99762.71;104604;277;104689;-58
2023/06/27 07:55:21;;;;;;;4.80;2.60;;;;;;;28.28;61.68;99758.29;104175;277;114196;-56
2023/06/27 07:57:56;;;;;;;4.70;2.10;;;;;;;27.48;60.92;99762.39;104161;278;93905;-56
2023/06/27 08:00:30;;;;;;;4.20;2.40;;;;;;;26.46;60.26;99768.02;104171;277;97412;-58
2023/06/27 08:03:04;;;;;;;5.70;2.50;;;;;;;25.65;61.21;99763.05;104625;277;119412;-59
2023/06/27 08:05:39;;;;;;;4.70;2.50;;;;;;;25.05;61.50;99761.75;103937;277;107363;-58
2023/06/27 08:08:13;;;;;;;4.80;2.50;;;;;;;25.38;63.12;99759.79;104125;277;113539;-58
2023/06/27 08:10:47;;;;;;;6.80;2.80;;;;;;;25.73;62.31;99769.38;104123;277;93754;-57
2023/06/27 08:13:21;;;;;;;5.10;2.40;;;;;;;26.75;62.34;99767.38;104150;277;95776;-57
2023/06/27 08:15:56;;;;;;;5.30;2.50;;;;;;;28.30;61.41;99756.87;104149;277;118633;-56
2023/06/27 08:18:30;;;;;;;7.10;2.60;;;;;;;29.80;59.15;99758.93;104175;277;104855;-56
2023/06/27 08:21:05;;;;;;;5.40;2.50;;;;;;;31.01;57.40;99762.30;104222;277;113495;-58
2023/06/27 08:23:40;;;;;;;5.40;2.30;;;;;;;31.03;54.47;99762.92;104640;278;93623;-59
2023/06/27 08:26:19;;;;;;;4.30;2.00;;;;;;;29.57;52.60;99762.13;104192;277;97990;-59
2023/06/27 08:28:54;;;;;;;3.90;2.20;;;;;;;28.51;52.32;99769.45;104150;277;118808;-58
2023/06/27 08:31:29;;;;;;;4.50;2.10;;;;;;;27.60;52.31;99770.88;104138;277;105214;-59
2023/06/27 08:34:03;;;;;;;4.40;1.80;;;;;;;26.75;52.89;99776.83;104163;277;113009;-59
2023/06/27 08:36:38;;;;;;;6.20;2.30;;;;;;;25.97;53.20;99784.65;104160;278;93829;-59
2023/06/27 08:39:13;;;;;;;5.20;2.10;;;;;;;25.68;54.38;99785.19;104154;277;96629;-56
2023/06/27 08:41:48;;;;;;;3.50;1.60;;;;;;;26.12;55.78;99790.58;104143;278;121013;-56
2023/06/27 08:44:23;;;;;;;3.40;1.80;;;;;;;27.24;55.17;99788.46;104130;277;105430;-56
2023/06/27 08:47:02;;;;;;;5.50;2.40;;;;;;;27.83;53.86;99786.61;104110;277;113589;-57
2023/06/27 08:49:42;;;;;;;6.60;1.80;;;;;;;28.68;52.06;99786.75;104109;277;93970;-56
2023/06/27 08:52:19;;;;;;;6.10;2.30;;;;;;;28.58;49.63;99794.55;104122;277;97396;-67
2023/06/27 08:54:56;;;;;;;3.50;1.60;;;;;;;27.74;49.50;99794.89;104654;277;120453;-58
2023/06/27 08:57:33;;;;;;;4.00;1.60;;;;;;;27.24;49.69;99802.39;104166;277;103823;-58
2023/06/27 09:00:12;;;;;;;4.20;1.80;;;;;;;26.49;49.94;99808.58;104131;277;115251;-56
2023/06/27 09:02:47;;;;;;;5.70;2.00;;;;;;;25.95;50.59;99812.48;104111;277;93921;-56
2023/06/27 09:05:22;;;;;;;5.50;1.60;;;;;;;25.84;50.79;99816.98;104126;277;97091;-58
2023/06/27 09:07:56;;;;;;;4.70;1.70;;;;;;;25.80;52.09;99819.90;104100;277;120248;-58
2023/06/27 09:10:31;;;;;;;3.40;1.70;;;;;;;26.19;51.41;99819.87;104634;278;105486;-58
2023/06/27 09:13:05;;;;;;;4.20;1.70;;;;;;;26.22;51.33;99817.61;104117;278;114042;-58
2023/06/27 09:15:39;;;;;;;4.20;1.60;;;;;;;26.15;51.43;99815.95;104137;277;95210;-56
2023/06/27 09:18:14;;;;;;;4.40;1.80;;;;;;;26.16;51.27;99813.71;104138;277;98038;-56
2023/06/27 09:20:48;;;;;;;3.30;1.80;;;;;;;26.07;50.91;99810.27;104602;277;121617;-58
2023/06/27 09:23:24;;;;;;;5.60;1.80;;;;;;;25.95;50.53;99811.05;104147;277;105591;-58
2023/06/27 09:26:12;;;;;;;8.50;2.00;;;;;;;26.00;50.98;99810.63;104589;277;113422;-56
2023/06/27 09:28:51;;;;;;;5.30;2.20;;;;;;;26.28;51.12;99820.27;104104;278;94436;-57
2023/06/27 09:31:27;;;;;;;5.20;2.00;;;;;;;26.39;50.81;99813.22;103993;278;97155;-56
2023/06/27 09:34:11;;;;;;;3.90;1.80;;;;;;;26.42;50.50;99809.45;104117;277;120548;-56
2023/06/27 09:36:45;;;;;;;5.60;1.70;;;;;;;26.21;50.66;99810.82;103948;277;104335;-56
2023/06/27 09:39:27;;;;;;;4.30;1.50;;;;;;;25.89;49.99;99813.25;104129;277;114356;-56
2023/06/27 09:42:04;;;;;;;3.70;1.80;;;;;;;25.71;50.62;99814.69;104121;277;95040;-56
2023/06/27 09:44:39;;;;;;;5.40;1.80;;;;;;;25.83;50.38;99814.77;104618;277;97445;-58
2023/06/27 09:47:14;;;;;;;3.90;1.30;;;;;;;26.01;50.37;99809.45;104564;277;121547;-58
2023/06/27 09:49:49;;;;;;;3.60;1.60;;;;;;;26.29;49.29;99815.37;103987;277;107281;-58
2023/06/27 09:52:23;;;;;;;4.40;1.60;;;;;;;26.34;48.11;99818.91;104101;277;114558;-58
2023/06/27 09:54:58;;;;;;;3.60;1.60;;;;;;;26.43;47.93;99812.85;104151;278;92683;-56
2023/06/27 09:57:34;;;;;;;2.50;1.40;;;;;;;26.60;47.33;99816.89;104157;277;97699;-56
2023/06/27 10:00:12;;;;;;;3.80;1.70;;;;;;;26.72;46.78;99817.19;104609;278;119859;-56
2023/06/27 10:02:49;;;;;;;3.70;1.40;;;;;;;26.64;46.75;99820.73;104147;277;104850;-56
2023/06/27 10:05:24;;;;;;;3.40;1.60;;;;;;;26.34;47.54;99812.98;104130;277;114385;-58
2023/06/27 10:07:59;;;;;;;4.50;1.60;;;;;;;26.59;47.47;99818.40;104064;277;94550;-58
2023/06/27 10:10:34;;;;;;;6.00;1.60;;;;;;;26.84;46.51;99824.81;104144;277;98560;-58
2023/06/27 10:13:08;;;;;;;2.70;1.40;;;;;;;26.97;45.81;99828.64;104103;278;119597;-58
2023/06/27 10:15:43;;;;;;;3.90;1.40;;;;;;;27.08;44.98;99827.73;104595;277;106388;-56
2023/06/27 10:18:18;;;;;;;5.20;1.30;;;;;;;27.00;45.20;99825.80;104090;277;113036;-56
2023/06/27 10:20:56;;;;;;;3.40;1.30;;;;;;;27.08;45.00;99826.62;104128;277;93664;-56
2023/06/27 10:23:34;;;;;;;4.30;1.50;;;;;;;26.78;44.57;99829.55;103959;278;100669;-56
2023/06/27 10:26:09;;;;;;;4.30;2.10;;;;;;;26.30;44.48;99831.06;104597;277;120250;-56
2023/06/27 10:28:51;;;;;;;2.60;1.20;;;;;;;26.45;44.49;99835.03;104124;278;104557;-56
2023/06/27 10:31:44;;;;;;;4.60;1.90;;;;;;;26.71;44.82;99830.36;104111;277;114043;-59
2023/06/27 10:34:25;;;;;;;4.30;1.40;;;;;;;26.99;44.49;99819.45;103953;279;94499;-58
2023/06/27 10:37:03;;;;;;;5.20;1.30;;;;;;;27.12;44.06;99825.03;104175;277;96754;-58
2023/06/27 10:39:41;;;;;;;4.20;1.40;;;;;;;27.26;43.75;99825.42;104136;277;120870;-58
2023/06/27 10:42:31;;;;;;;2.20;1.30;;;;;;;27.33;43.79;99820.55;104168;277;103472;-58
2023/06/27 10:45:12;;;;;;;3.40;1.40;;;;;;;26.87;43.11;99820.31;104134;278;113311;-56
2023/06/27 10:47:46;;;;;;;3.20;1.10;;;;;;;26.48;43.33;99816.58;104122;277;95059;-56
2023/06/27 10:50:26;;;;;;;2.40;1.30;;;;;;;26.52;43.74;99819.77;104146;277;96590;-56
2023/06/27 10:53:08;;;;;;;3.70;1.40;;;;;;;26.59;43.30;99817.73;104582;278;118803;-56
2023/06/27 10:55:43;;;;;;;5.50;1.70;;;;;;;26.66;43.24;99815.91;104135;277;103836;-58
2023/06/27 10:58:17;;;;;;;6.20;1.50;;;;;;;26.67;43.29;99812.02;104160;277;113100;-58
2023/06/27 11:00:55;;;;;;;4.60;2.30;;;;;;;26.86;43.23;99811.69;104152;278;93425;-58
2023/06/27 11:03:33;;;;;;;3.80;1.20;;;;;;;26.83;43.36;99814.52;104175;277;96885;-58
2023/06/27 11:06:09;;;;;;;8.00;1.70;;;;;;;26.29;42.65;99819.23;104180;277;119725;-56
2023/06/27 11:08:44;;;;;;;4.30;1.30;;;;;;;25.97;42.96;99816.05;104123;277;104363;-56
2023/06/27 11:11:29;;;;;;;5.10;1.60;;;;;;;26.10;42.70;99816.63;104129;277;114603;-58
2023/06/27 11:14:11;;;;;;;4.40;1.80;;;;;;;26.17;42.78;99814.61;104110;277;94037;-56
2023/06/27 11:16:49;;;;;;;5.70;1.70;;;;;;;25.87;43.32;99807.92;104589;277;96849;-56
2023/06/27 11:19:24;;;;;;;5.70;1.80;;;;;;;25.57;43.34;99808.11;104119;277;118576;-56
2023/06/27 11:21:58;;;;;;;6.90;2.10;;;;;;;25.15;43.50;99815.73;104099;277;104087;-56
2023/06/27 11:24:33;;;;;;;4.60;1.80;;;;;;;24.65;43.83;99811.98;104168;277;114771;-56
2023/06/27 11:27:09;;;;;;;4.70;1.70;;;;;;;24.60;44.57;99811.09;104145;277;94193;-56
2023/06/27 11:29:45;;;;;;;6.10;1.70;;;;;;;24.97;45.31;99805.31;104167;277;98010;-56
2023/06/27 11:32:20;;;;;;;5.00;2.00;;;;;;;25.29;45.16;99800.92;104173;277;121014;-55
2023/06/27 11:34:55;;;;;;;4.40;1.40;;;;;;;25.26;44.82;99800.73;104123;277;104733;-57
2023/06/27 11:37:29;;;;;;;5.00;2.10;;;;;;;25.21;44.81;99801.53;104108;277;114629;-56
2023/06/27 11:40:08;;;;;;;4.80;2.00;;;;;;;25.10;44.44;99801.54;104123;277;95048;-59
2023/06/27 11:42:42;;;;;;;5.70;1.80;;;;;;;24.84;44.29;99806.72;104149;277;98133;-55
2023/06/27 11:45:16;;;;;;;6.30;1.70;;;;;;;24.62;44.34;99809.24;104183;277;120327;-55
2023/06/27 11:47:52;;;;;;;4.60;1.60;;;;;;;24.64;44.72;99803.75;104159;277;105412;-58
2023/06/27 11:50:26;;;;;;;4.80;2.30;;;;;;;24.68;44.61;99799.67;104140;278;113998;-55
2023/06/27 11:53:01;;;;;;;5.10;1.70;;;;;;;24.70;44.60;99799.98;104101;277;94587;-56
2023/06/27 11:55:43;;;;;;;5.50;2.60;;;;;;;24.94;44.84;99788.12;104146;277;98190;-58
2023/06/27 11:58:26;;;;;;;4.70;1.70;;;;;;;25.24;44.89;99779.43;104635;278;120950;-58
2023/06/27 12:01:01;;;;;;;4.90;1.70;;;;;;;25.54;44.80;99780.11;104125;277;105537;-58
2023/06/27 12:03:38;;;;;;;3.90;1.60;;;;;;;25.65;44.34;99774.66;104611;277;114952;-58
2023/06/27 12:06:27;;;;;;;3.40;1.90;;;;;;;25.94;43.96;99776.02;104139;278;92780;-56
2023/06/27 12:09:01;;;;;;;4.20;1.60;;;;;;;26.16;43.49;99776.39;104157;278;97230;-58